New Albany, MS (38652)

8:31 PM CDT on May 27, 2015 (GMT -0500)
Northhaven | | Change Station
CLOSE
Current Station
Personal Weather Station
Location: New Albany, MS
Elevation: 364 ft
Nearby Weather Stations

Elev 364 ft 34.51 °N, 89.00 °W | Updated 7 minutes ago

Rain
Rain
67.8 °F
Feels Like 67.8 °F
N
3.2
Wind Variable Wind from ESE

Today
High -- | Low -- °F
--% Chance of Precip.
Yesterday
High -- | Low -- °F
Precip. -- in
5:46 AM 8:00 PM
Waxing Gibbous, 71% visible
Pressure 30.12 in
Visibility 10.0 miles
Clouds Few 500 ft
Scattered Clouds 11000 ft
Dew Point 68 °F
Humidity 99%
Rainfall 1.58 in
Snow Depth Not available.
UV 0 out of 12
Pollen 5.80 out of 12
Air Quality Not available.
Flu Activity No Activity
SPECI KTUP 280101Z 09005KT 10SM -RA FEW005 SCT110 21/19 A3012 RMK AO2 P0000 T02060189

More Conditions Fewer Conditions

Pressure 30.12 in
Visibility 10.0 miles
Clouds Few 500 ft
Scattered Clouds 11000 ft
Dew Point 68 °F
Humidity 99%
Rainfall 1.58 in
Snow Depth Not available.
UV 0 out of 12
Pollen 5.80 out of 12
Air Quality Not available.
Flu Activity No Activity
SPECI KTUP 280101Z 09005KT 10SM -RA FEW005 SCT110 21/19 A3012 RMK AO2 P0000 T02060189

More Conditions Fewer Conditions

10-Day Weather Forecast

Almanac

Astronomy

May. 27, 2015 Rise Set
Actual Time
Civil Twilight
Nautical Twilight
Astronomical Twilight
Moon
Length of Visible Light
Length of Day
Tomorrow will be .
, % of the Moon is Illuminated

Today's Extremes

State Highs State Lows

Community

WunderPhotos

Upload Photos

1,824,847 photos uploaded!

WunderBlogs® & News

Nearby

Air Quality

  Air Quality AQ Index Pollutant
Not available.

Snow Depth

Station Depth Elevation

Earthquake Activity

City Distance Mag. Time & Date
Minimum magnitude displayed is 2.5.

Coastal Water Temperatures

Place Temperature

Stations

Nearby Weather Stations

Station Location Temp. Windchill Dew Point Humidity Wind Precip. Elev Updated Type